sensor_id;sensor_type;location;lat;lon;timestamp;pressure;altitude;pressure_sealevel;temperature
12061;BMP180;6091;51.432;6.880;2023-07-16T00:00:40;100253.00;;;30.50
12061;BMP180;6091;51.432;6.880;2023-07-16T00:03:07;100258.00;;;30.50
12061;BMP180;6091;51.432;6.880;2023-07-16T00:05:36;100252.00;;;30.50
12061;BMP180;6091;51.432;6.880;2023-07-16T00:08:04;100233.00;;;30.50
12061;BMP180;6091;51.432;6.880;2023-07-16T00:10:35;100251.00;;;30.50
12061;BMP180;6091;51.432;6.880;2023-07-16T00:13:03;100254.00;;;30.50
12061;BMP180;6091;51.432;6.880;2023-07-16T00:15:31;100244.00;;;30.50
12061;BMP180;6091;51.432;6.880;2023-07-16T00:17:58;100259.00;;;30.50
12061;BMP180;6091;51.432;6.880;2023-07-16T00:20:25;100257.00;;;30.50
12061;BMP180;6091;51.432;6.880;2023-07-16T00:22:52;100263.00;;;30.50
12061;BMP180;6091;51.432;6.880;2023-07-16T00:25:19;100269.00;;;30.50
12061;BMP180;6091;51.432;6.880;2023-07-16T00:27:46;100273.00;;;30.50
12061;BMP180;6091;51.432;6.880;2023-07-16T00:30:13;100274.00;;;30.50
12061;BMP180;6091;51.432;6.880;2023-07-16T00:32:40;100273.00;;;30.50
12061;BMP180;6091;51.432;6.880;2023-07-16T00:35:08;100273.00;;;30.50
12061;BMP180;6091;51.432;6.880;2023-07-16T00:37:35;100270.00;;;30.50
12061;BMP180;6091;51.432;6.880;2023-07-16T00:40:02;100266.00;;;30.50
12061;BMP180;6091;51.432;6.880;2023-07-16T00:42:31;100252.00;;;30.50
12061;BMP180;6091;51.432;6.880;2023-07-16T00:44:58;100252.00;;;30.50
12061;BMP180;6091;51.432;6.880;2023-07-16T00:47:25;100242.00;;;30.50
12061;BMP180;6091;51.432;6.880;2023-07-16T00:49:52;100248.00;;;30.50
12061;BMP180;6091;51.432;6.880;2023-07-16T00:52:22;100255.00;;;30.50
12061;BMP180;6091;51.432;6.880;2023-07-16T00:54:49;100273.00;;;30.40
12061;BMP180;6091;51.432;6.880;2023-07-16T00:57:16;100279.00;;;30.40
12061;BMP180;6091;51.432;6.880;2023-07-16T00:59:43;100273.00;;;30.40
12061;BMP180;6091;51.432;6.880;2023-07-16T01:02:11;100274.00;;;30.40
12061;BMP180;6091;51.432;6.880;2023-07-16T01:04:38;100268.00;;;30.40
12061;BMP180;6091;51.432;6.880;2023-07-16T01:07:11;100269.00;;;30.40
12061;BMP180;6091;51.432;6.880;2023-07-16T01:09:42;100272.00;;;30.40
12061;BMP180;6091;51.432;6.880;2023-07-16T01:12:10;100280.00;;;30.40
12061;BMP180;6091;51.432;6.880;2023-07-16T01:14:39;100281.00;;;30.40
12061;BMP180;6091;51.432;6.880;2023-07-16T01:17:07;100277.00;;;30.40
12061;BMP180;6091;51.432;6.880;2023-07-16T01:19:35;100273.00;;;30.40
12061;BMP180;6091;51.432;6.880;2023-07-16T01:25:41;100278.00;;;30.30
12061;BMP180;6091;51.432;6.880;2023-07-16T01:31:17;100287.00;;;30.30
12061;BMP180;6091;51.432;6.880;2023-07-16T01:33:45;100281.00;;;30.30
12061;BMP180;6091;51.432;6.880;2023-07-16T01:36:13;100283.00;;;30.30
12061;BMP180;6091;51.432;6.880;2023-07-16T01:38:41;100283.00;;;30.30
12061;BMP180;6091;51.432;6.880;2023-07-16T01:41:09;100285.00;;;30.30
12061;BMP180;6091;51.432;6.880;2023-07-16T01:43:37;100290.00;;;30.30
12061;BMP180;6091;51.432;6.880;2023-07-16T01:46:04;100292.00;;;30.30
12061;BMP180;6091;51.432;6.880;2023-07-16T01:48:37;100296.00;;;30.30
12061;BMP180;6091;51.432;6.880;2023-07-16T01:51:05;100305.00;;;30.30
12061;BMP180;6091;51.432;6.880;2023-07-16T01:53:32;100299.00;;;30.30
12061;BMP180;6091;51.432;6.880;2023-07-16T01:56:01;100307.00;;;30.30
12061;BMP180;6091;51.432;6.880;2023-07-16T01:58:29;100306.00;;;30.30
12061;BMP180;6091;51.432;6.880;2023-07-16T02:00:56;100304.00;;;30.30
12061;BMP180;6091;51.432;6.880;2023-07-16T02:03:23;100308.00;;;30.30
12061;BMP180;6091;51.432;6.880;2023-07-16T02:05:51;100313.00;;;30.30
12061;BMP180;6091;51.432;6.880;2023-07-16T02:08:20;100313.00;;;30.30
12061;BMP180;6091;51.432;6.880;2023-07-16T02:10:52;100307.00;;;30.30
12061;BMP180;6091;51.432;6.880;2023-07-16T02:13:21;100312.00;;;30.30
12061;BMP180;6091;51.432;6.880;2023-07-16T02:15:48;100314.00;;;30.30
12061;BMP180;6091;51.432;6.880;2023-07-16T02:18:16;100311.00;;;30.30
12061;BMP180;6091;51.432;6.880;2023-07-16T02:20:44;100302.00;;;30.30
12061;BMP180;6091;51.432;6.880;2023-07-16T02:23:11;100310.00;;;30.30
12061;BMP180;6091;51.432;6.880;2023-07-16T02:25:38;100302.00;;;30.30
12061;BMP180;6091;51.432;6.880;2023-07-16T02:28:05;100311.00;;;30.30
12061;BMP180;6091;51.432;6.880;2023-07-16T02:30:32;100323.00;;;30.30
12061;BMP180;6091;51.432;6.880;2023-07-16T02:32:59;100331.00;;;30.30
12061;BMP180;6091;51.432;6.880;2023-07-16T02:35:26;100330.00;;;30.30
12061;BMP180;6091;51.432;6.880;2023-07-16T02:37:54;100330.00;;;30.30
12061;BMP180;6091;51.432;6.880;2023-07-16T02:40:21;100335.00;;;30.20
12061;BMP180;6091;51.432;6.880;2023-07-16T02:42:49;100335.00;;;30.30
12061;BMP180;6091;51.432;6.880;2023-07-16T02:45:16;100339.00;;;30.20
12061;BMP180;6091;51.432;6.880;2023-07-16T02:47:43;100339.00;;;30.20
12061;BMP180;6091;51.432;6.880;2023-07-16T02:50:10;100341.00;;;30.20
12061;BMP180;6091;51.432;6.880;2023-07-16T02:52:38;100352.00;;;30.20
12061;BMP180;6091;51.432;6.880;2023-07-16T02:55:05;100350.00;;;30.20
12061;BMP180;6091;51.432;6.880;2023-07-16T02:57:32;100350.00;;;30.20
12061;BMP180;6091;51.432;6.880;2023-07-16T02:59:59;100349.00;;;30.20
12061;BMP180;6091;51.432;6.880;2023-07-16T03:02:26;100352.00;;;30.30
12061;BMP180;6091;51.432;6.880;2023-07-16T03:04:53;100349.00;;;30.20
12061;BMP180;6091;51.432;6.880;2023-07-16T03:07:21;100360.00;;;30.20
12061;BMP180;6091;51.432;6.880;2023-07-16T03:09:48;100358.00;;;30.20
12061;BMP180;6091;51.432;6.880;2023-07-16T03:12:15;100365.00;;;30.20
12061;BMP180;6091;51.432;6.880;2023-07-16T03:14:43;100373.00;;;30.20
12061;BMP180;6091;51.432;6.880;2023-07-16T03:17:10;100357.00;;;30.20
12061;BMP180;6091;51.432;6.880;2023-07-16T03:19:37;100360.00;;;30.20
12061;BMP180;6091;51.432;6.880;2023-07-16T03:22:05;100367.00;;;30.20
12061;BMP180;6091;51.432;6.880;2023-07-16T03:24:32;100360.00;;;30.20
12061;BMP180;6091;51.432;6.880;2023-07-16T03:26:59;100369.00;;;30.20
12061;BMP180;6091;51.432;6.880;2023-07-16T03:29:38;100374.00;;;30.20
12061;BMP180;6091;51.432;6.880;2023-07-16T03:32:05;100365.00;;;30.20
12061;BMP180;6091;51.432;6.880;2023-07-16T03:34:32;100365.00;;;30.20
12061;BMP180;6091;51.432;6.880;2023-07-16T03:36:59;100383.00;;;30.20
12061;BMP180;6091;51.432;6.880;2023-07-16T03:39:26;100376.00;;;30.20
12061;BMP180;6091;51.432;6.880;2023-07-16T03:41:53;100377.00;;;30.20
12061;BMP180;6091;51.432;6.880;2023-07-16T03:44:20;100380.00;;;30.20
12061;BMP180;6091;51.432;6.880;2023-07-16T03:46:47;100390.00;;;30.20
12061;BMP180;6091;51.432;6.880;2023-07-16T03:49:15;100401.00;;;30.20
12061;BMP180;6091;51.432;6.880;2023-07-16T03:51:45;100391.00;;;30.20
12061;BMP180;6091;51.432;6.880;2023-07-16T03:54:12;100398.00;;;30.20
12061;BMP180;6091;51.432;6.880;2023-07-16T03:56:39;100410.00;;;30.20
12061;BMP180;6091;51.432;6.880;2023-07-16T03:59:06;100415.00;;;30.10
12061;BMP180;6091;51.432;6.880;2023-07-16T04:01:33;100413.00;;;30.10
12061;BMP180;6091;51.432;6.880;2023-07-16T04:04:00;100409.00;;;30.10
12061;BMP180;6091;51.432;6.880;2023-07-16T04:06:28;100416.00;;;30.10
12061;BMP180;6091;51.432;6.880;2023-07-16T04:08:55;100416.00;;;30.10
12061;BMP180;6091;51.432;6.880;2023-07-16T04:11:22;100432.00;;;30.10
12061;BMP180;6091;51.432;6.880;2023-07-16T04:13:49;100429.00;;;30.10
12061;BMP180;6091;51.432;6.880;2023-07-16T04:16:16;100438.00;;;30.10
12061;BMP180;6091;51.432;6.880;2023-07-16T04:18:43;100441.00;;;30.10
12061;BMP180;6091;51.432;6.880;2023-07-16T04:21:10;100434.00;;;30.10
12061;BMP180;6091;51.432;6.880;2023-07-16T04:23:37;100435.00;;;30.10
12061;BMP180;6091;51.432;6.880;2023-07-16T04:26:04;100439.00;;;30.10
12061;BMP180;6091;51.432;6.880;2023-07-16T04:28:31;100442.00;;;30.10
12061;BMP180;6091;51.432;6.880;2023-07-16T04:30:58;100440.00;;;30.10
12061;BMP180;6091;51.432;6.880;2023-07-16T04:33:25;100446.00;;;30.10
12061;BMP180;6091;51.432;6.880;2023-07-16T04:35:52;100451.00;;;30.10
12061;BMP180;6091;51.432;6.880;2023-07-16T04:38:19;100446.00;;;30.10
12061;BMP180;6091;51.432;6.880;2023-07-16T04:40:47;100452.00;;;30.10
12061;BMP180;6091;51.432;6.880;2023-07-16T04:43:14;100449.00;;;30.10
12061;BMP180;6091;51.432;6.880;2023-07-16T04:45:44;100457.00;;;30.10
12061;BMP180;6091;51.432;6.880;2023-07-16T04:48:13;100452.00;;;30.10
12061;BMP180;6091;51.432;6.880;2023-07-16T04:50:40;100457.00;;;30.10
12061;BMP180;6091;51.432;6.880;2023-07-16T04:53:07;100466.00;;;30.10
12061;BMP180;6091;51.432;6.880;2023-07-16T04:55:39;100473.00;;;30.10
12061;BMP180;6091;51.432;6.880;2023-07-16T04:58:06;100476.00;;;30.10
12061;BMP180;6091;51.432;6.880;2023-07-16T05:00:33;100469.00;;;30.10
12061;BMP180;6091;51.432;6.880;2023-07-16T05:03:00;100470.00;;;30.10
12061;BMP180;6091;51.432;6.880;2023-07-16T05:05:28;100472.00;;;30.10
12061;BMP180;6091;51.432;6.880;2023-07-16T05:07:55;100475.00;;;30.10
12061;BMP180;6091;51.432;6.880;2023-07-16T05:10:28;100481.00;;;30.10
12061;BMP180;6091;51.432;6.880;2023-07-16T05:12:55;100481.00;;;30.10
12061;BMP180;6091;51.432;6.880;2023-07-16T05:15:22;100490.00;;;30.10
12061;BMP180;6091;51.432;6.880;2023-07-16T05:17:49;100488.00;;;30.10
12061;BMP180;6091;51.432;6.880;2023-07-16T05:20:16;100490.00;;;30.10
12061;BMP180;6091;51.432;6.880;2023-07-16T05:22:45;100484.00;;;30.10
12061;BMP180;6091;51.432;6.880;2023-07-16T05:25:12;100487.00;;;30.10
12061;BMP180;6091;51.432;6.880;2023-07-16T05:27:39;100493.00;;;30.10
12061;BMP180;6091;51.432;6.880;2023-07-16T05:30:07;100493.00;;;30.10
12061;BMP180;6091;51.432;6.880;2023-07-16T05:32:35;100497.00;;;30.10
12061;BMP180;6091;51.432;6.880;2023-07-16T05:35:02;100503.00;;;30.10
12061;BMP180;6091;51.432;6.880;2023-07-16T05:37:29;100510.00;;;30.10
12061;BMP180;6091;51.432;6.880;2023-07-16T05:39:57;100507.00;;;30.10
12061;BMP180;6091;51.432;6.880;2023-07-16T05:42:25;100503.00;;;30.10
12061;BMP180;6091;51.432;6.880;2023-07-16T05:44:52;100515.00;;;30.10
12061;BMP180;6091;51.432;6.880;2023-07-16T05:47:19;100509.00;;;30.10
12061;BMP180;6091;51.432;6.880;2023-07-16T05:49:46;100510.00;;;30.10
12061;BMP180;6091;51.432;6.880;2023-07-16T05:52:13;100508.00;;;30.10
12061;BMP180;6091;51.432;6.880;2023-07-16T05:54:40;100514.00;;;30.10
12061;BMP180;6091;51.432;6.880;2023-07-16T05:57:07;100519.00;;;30.10
12061;BMP180;6091;51.432;6.880;2023-07-16T05:59:34;100518.00;;;30.10
12061;BMP180;6091;51.432;6.880;2023-07-16T06:02:06;100515.00;;;30.20
12061;BMP180;6091;51.432;6.880;2023-07-16T06:04:33;100514.00;;;30.20
12061;BMP180;6091;51.432;6.880;2023-07-16T06:07:02;100517.00;;;30.20
12061;BMP180;6091;51.432;6.880;2023-07-16T06:09:30;100521.00;;;30.20
12061;BMP180;6091;51.432;6.880;2023-07-16T06:11:57;100521.00;;;30.20
12061;BMP180;6091;51.432;6.880;2023-07-16T06:14:24;100516.00;;;30.20
12061;BMP180;6091;51.432;6.880;2023-07-16T06:16:51;100523.00;;;30.20
12061;BMP180;6091;51.432;6.880;2023-07-16T06:19:19;100521.00;;;30.20
12061;BMP180;6091;51.432;6.880;2023-07-16T06:21:46;100517.00;;;30.20
12061;BMP180;6091;51.432;6.880;2023-07-16T06:24:13;100526.00;;;30.20
12061;BMP180;6091;51.432;6.880;2023-07-16T06:26:43;100520.00;;;30.20
12061;BMP180;6091;51.432;6.880;2023-07-16T06:29:10;100525.00;;;30.20
12061;BMP180;6091;51.432;6.880;2023-07-16T06:31:37;100529.00;;;30.20
12061;BMP180;6091;51.432;6.880;2023-07-16T06:34:04;100536.00;;;30.20
12061;BMP180;6091;51.432;6.880;2023-07-16T06:36:31;100542.00;;;30.20
12061;BMP180;6091;51.432;6.880;2023-07-16T06:38:58;100547.00;;;30.20
12061;BMP180;6091;51.432;6.880;2023-07-16T06:41:27;100547.00;;;30.20
12061;BMP180;6091;51.432;6.880;2023-07-16T06:43:54;100553.00;;;30.20
12061;BMP180;6091;51.432;6.880;2023-07-16T06:46:21;100545.00;;;30.20
12061;BMP180;6091;51.432;6.880;2023-07-16T06:48:48;100547.00;;;30.20
12061;BMP180;6091;51.432;6.880;2023-07-16T06:51:15;100551.00;;;30.20
12061;BMP180;6091;51.432;6.880;2023-07-16T06:53:42;100551.00;;;30.20
12061;BMP180;6091;51.432;6.880;2023-07-16T06:56:09;100545.00;;;30.20
12061;BMP180;6091;51.432;6.880;2023-07-16T06:58:36;100554.00;;;30.30
12061;BMP180;6091;51.432;6.880;2023-07-16T07:01:03;100559.00;;;30.30
12061;BMP180;6091;51.432;6.880;2023-07-16T07:03:31;100551.00;;;30.30
12061;BMP180;6091;51.432;6.880;2023-07-16T07:06:03;100549.00;;;30.30
12061;BMP180;6091;51.432;6.880;2023-07-16T07:08:31;100553.00;;;30.30
12061;BMP180;6091;51.432;6.880;2023-07-16T07:10:58;100550.00;;;30.30
12061;BMP180;6091;51.432;6.880;2023-07-16T07:13:25;100556.00;;;30.30
12061;BMP180;6091;51.432;6.880;2023-07-16T07:15:52;100552.00;;;30.30
12061;BMP180;6091;51.432;6.880;2023-07-16T07:18:19;100549.00;;;30.30
12061;BMP180;6091;51.432;6.880;2023-07-16T07:20:46;100561.00;;;30.30
12061;BMP180;6091;51.432;6.880;2023-07-16T07:23:15;100559.00;;;30.30
12061;BMP180;6091;51.432;6.880;2023-07-16T07:25:43;100557.00;;;30.30
12061;BMP180;6091;51.432;6.880;2023-07-16T07:28:10;100562.00;;;30.40
12061;BMP180;6091;51.432;6.880;2023-07-16T07:30:37;100567.00;;;30.40
12061;BMP180;6091;51.432;6.880;2023-07-16T07:33:04;100566.00;;;30.40
12061;BMP180;6091;51.432;6.880;2023-07-16T07:35:31;100575.00;;;30.40
12061;BMP180;6091;51.432;6.880;2023-07-16T07:37:58;100571.00;;;30.40
12061;BMP180;6091;51.432;6.880;2023-07-16T07:40:26;100567.00;;;30.40
12061;BMP180;6091;51.432;6.880;2023-07-16T07:42:53;100572.00;;;30.40
12061;BMP180;6091;51.432;6.880;2023-07-16T07:45:20;100572.00;;;30.50
12061;BMP180;6091;51.432;6.880;2023-07-16T07:47:47;100570.00;;;30.50
12061;BMP180;6091;51.432;6.880;2023-07-16T07:50:15;100576.00;;;30.50
12061;BMP180;6091;51.432;6.880;2023-07-16T07:52:43;100575.00;;;30.50
12061;BMP180;6091;51.432;6.880;2023-07-16T07:55:13;100571.00;;;30.50
12061;BMP180;6091;51.432;6.880;2023-07-16T07:57:40;100568.00;;;30.40
12061;BMP180;6091;51.432;6.880;2023-07-16T08:00:08;100571.00;;;30.30
12061;BMP180;6091;51.432;6.880;2023-07-16T08:02:39;100574.00;;;30.20
12061;BMP180;6091;51.432;6.880;2023-07-16T08:05:07;100573.00;;;30.10
12061;BMP180;6091;51.432;6.880;2023-07-16T08:07:35;100574.00;;;30.00
12061;BMP180;6091;51.432;6.880;2023-07-16T08:10:03;100592.00;;;29.90
12061;BMP180;6091;51.432;6.880;2023-07-16T08:12:31;100575.00;;;29.80
12061;BMP180;6091;51.432;6.880;2023-07-16T08:14:58;100582.00;;;29.70
12061;BMP180;6091;51.432;6.880;2023-07-16T08:17:26;100572.00;;;29.70
12061;BMP180;6091;51.432;6.880;2023-07-16T08:19:53;100582.00;;;29.60
12061;BMP180;6091;51.432;6.880;2023-07-16T08:22:21;100576.00;;;29.50
12061;BMP180;6091;51.432;6.880;2023-07-16T08:24:48;100588.00;;;29.50
12061;BMP180;6091;51.432;6.880;2023-07-16T08:27:15;100571.00;;;29.40
12061;BMP180;6091;51.432;6.880;2023-07-16T08:29:43;100587.00;;;29.40
12061;BMP180;6091;51.432;6.880;2023-07-16T08:32:10;100580.00;;;29.30
12061;BMP180;6091;51.432;6.880;2023-07-16T08:34:37;100601.00;;;29.30
12061;BMP180;6091;51.432;6.880;2023-07-16T08:37:05;100594.00;;;29.20
12061;BMP180;6091;51.432;6.880;2023-07-16T08:39:32;100587.00;;;29.20
12061;BMP180;6091;51.432;6.880;2023-07-16T08:41:59;100598.00;;;29.20
12061;BMP180;6091;51.432;6.880;2023-07-16T08:44:28;100599.00;;;29.20
12061;BMP180;6091;51.432;6.880;2023-07-16T08:46:56;100594.00;;;29.10
12061;BMP180;6091;51.432;6.880;2023-07-16T08:49:28;100595.00;;;29.10
12061;BMP180;6091;51.432;6.880;2023-07-16T08:51:57;100607.00;;;29.10
12061;BMP180;6091;51.432;6.880;2023-07-16T08:54:24;100608.00;;;29.10
12061;BMP180;6091;51.432;6.880;2023-07-16T08:56:52;100610.00;;;29.10
12061;BMP180;6091;51.432;6.880;2023-07-16T08:59:21;100619.00;;;29.10
12061;BMP180;6091;51.432;6.880;2023-07-16T09:01:48;100604.00;;;29.10
12061;BMP180;6091;51.432;6.880;2023-07-16T09:04:19;100603.00;;;29.10
12061;BMP180;6091;51.432;6.880;2023-07-16T09:06:46;100611.00;;;29.00
12061;BMP180;6091;51.432;6.880;2023-07-16T09:09:23;100597.00;;;29.10
12061;BMP180;6091;51.432;6.880;2023-07-16T09:11:50;100612.00;;;29.10
12061;BMP180;6091;51.432;6.880;2023-07-16T09:14:21;100620.00;;;29.10
12061;BMP180;6091;51.432;6.880;2023-07-16T09:16:52;100617.00;;;29.10
12061;BMP180;6091;51.432;6.880;2023-07-16T09:19:21;100610.00;;;29.10
12061;BMP180;6091;51.432;6.880;2023-07-16T09:21:50;100613.00;;;29.10
12061;BMP180;6091;51.432;6.880;2023-07-16T09:24:19;100620.00;;;29.20
12061;BMP180;6091;51.432;6.880;2023-07-16T09:26:53;100621.00;;;29.20
12061;BMP180;6091;51.432;6.880;2023-07-16T09:29:20;100610.00;;;29.10
12061;BMP180;6091;51.432;6.880;2023-07-16T09:32:06;100613.00;;;29.10
12061;BMP180;6091;51.432;6.880;2023-07-16T09:34:33;100616.00;;;29.10
12061;BMP180;6091;51.432;6.880;2023-07-16T09:37:04;100632.00;;;29.10
12061;BMP180;6091;51.432;6.880;2023-07-16T09:39:32;100621.00;;;29.20
12061;BMP180;6091;51.432;6.880;2023-07-16T09:42:02;100629.00;;;29.20
12061;BMP180;6091;51.432;6.880;2023-07-16T09:44:30;100635.00;;;29.20
12061;BMP180;6091;51.432;6.880;2023-07-16T09:46:57;100642.00;;;29.20
12061;BMP180;6091;51.432;6.880;2023-07-16T09:49:28;100633.00;;;29.20
12061;BMP180;6091;51.432;6.880;2023-07-16T09:51:57;100627.00;;;29.10
12061;BMP180;6091;51.432;6.880;2023-07-16T09:54:26;100635.00;;;29.20
12061;BMP180;6091;51.432;6.880;2023-07-16T09:56:58;100632.00;;;29.20
12061;BMP180;6091;51.432;6.880;2023-07-16T09:59:30;100625.00;;;29.20
12061;BMP180;6091;51.432;6.880;2023-07-16T10:01:59;100631.00;;;29.10
12061;BMP180;6091;51.432;6.880;2023-07-16T10:04:26;100640.00;;;29.20
12061;BMP180;6091;51.432;6.880;2023-07-16T10:07:03;100629.00;;;29.20
12061;BMP180;6091;51.432;6.880;2023-07-16T10:12:18;100640.00;;;29.20
12061;BMP180;6091;51.432;6.880;2023-07-16T10:14:49;100641.00;;;29.20
12061;BMP180;6091;51.432;6.880;2023-07-16T10:17:25;100648.00;;;29.20
12061;BMP180;6091;51.432;6.880;2023-07-16T10:19:58;100644.00;;;29.30
12061;BMP180;6091;51.432;6.880;2023-07-16T10:22:52;100652.00;;;29.30
12061;BMP180;6091;51.432;6.880;2023-07-16T10:27:49;100650.00;;;29.40
12061;BMP180;6091;51.432;6.880;2023-07-16T10:30:17;100647.00;;;29.50
12061;BMP180;6091;51.432;6.880;2023-07-16T10:32:45;100656.00;;;29.50
12061;BMP180;6091;51.432;6.880;2023-07-16T10:35:13;100657.00;;;29.50
12061;BMP180;6091;51.432;6.880;2023-07-16T10:37:41;100649.00;;;29.50
12061;BMP180;6091;51.432;6.880;2023-07-16T10:40:14;100652.00;;;29.60
12061;BMP180;6091;51.432;6.880;2023-07-16T10:42:43;100659.00;;;29.60
12061;BMP180;6091;51.432;6.880;2023-07-16T10:45:11;100662.00;;;29.60
12061;BMP180;6091;51.432;6.880;2023-07-16T10:47:51;100662.00;;;29.70
12061;BMP180;6091;51.432;6.880;2023-07-16T10:50:20;100655.00;;;29.70
12061;BMP180;6091;51.432;6.880;2023-07-16T10:52:55;100652.00;;;29.80
12061;BMP180;6091;51.432;6.880;2023-07-16T10:55:23;100667.00;;;29.80
12061;BMP180;6091;51.432;6.880;2023-07-16T10:57:52;100663.00;;;29.80
12061;BMP180;6091;51.432;6.880;2023-07-16T11:00:21;100665.00;;;29.80
12061;BMP180;6091;51.432;6.880;2023-07-16T11:02:52;100666.00;;;29.80
12061;BMP180;6091;51.432;6.880;2023-07-16T11:05:20;100666.00;;;29.90
12061;BMP180;6091;51.432;6.880;2023-07-16T11:07:49;100667.00;;;29.90
12061;BMP180;6091;51.432;6.880;2023-07-16T11:10:23;100678.00;;;29.90
12061;BMP180;6091;51.432;6.880;2023-07-16T11:12:53;100671.00;;;29.90
12061;BMP180;6091;51.432;6.880;2023-07-16T11:15:34;100679.00;;;29.90
12061;BMP180;6091;51.432;6.880;2023-07-16T11:18:02;100679.00;;;29.90
12061;BMP180;6091;51.432;6.880;2023-07-16T11:20:30;100677.00;;;29.90
12061;BMP180;6091;51.432;6.880;2023-07-16T11:23:01;100670.00;;;29.90
12061;BMP180;6091;51.432;6.880;2023-07-16T11:25:29;100675.00;;;29.90
12061;BMP180;6091;51.432;6.880;2023-07-16T11:27:56;100676.00;;;29.80
12061;BMP180;6091;51.432;6.880;2023-07-16T11:30:26;100682.00;;;29.80
12061;BMP180;6091;51.432;6.880;2023-07-16T11:32:57;100674.00;;;29.80
12061;BMP180;6091;51.432;6.880;2023-07-16T11:35:26;100682.00;;;29.80
12061;BMP180;6091;51.432;6.880;2023-07-16T11:37:55;100683.00;;;29.80
12061;BMP180;6091;51.432;6.880;2023-07-16T11:40:22;100690.00;;;29.80
12061;BMP180;6091;51.432;6.880;2023-07-16T11:42:49;100684.00;;;29.80
12061;BMP180;6091;51.432;6.880;2023-07-16T11:45:25;100687.00;;;29.80
12061;BMP180;6091;51.432;6.880;2023-07-16T11:47:54;100687.00;;;29.80
12061;BMP180;6091;51.432;6.880;2023-07-16T11:50:22;100690.00;;;29.80
12061;BMP180;6091;51.432;6.880;2023-07-16T11:52:59;100695.00;;;29.80
12061;BMP180;6091;51.432;6.880;2023-07-16T11:55:33;100691.00;;;29.80
12061;BMP180;6091;51.432;6.880;2023-07-16T11:58:00;100695.00;;;29.80
12061;BMP180;6091;51.432;6.880;2023-07-16T12:00:29;100696.00;;;29.80
12061;BMP180;6091;51.432;6.880;2023-07-16T12:02:56;100694.00;;;29.80
12061;BMP180;6091;51.432;6.880;2023-07-16T12:05:23;100701.00;;;29.80
12061;BMP180;6091;51.432;6.880;2023-07-16T12:08:12;100698.00;;;29.80
12061;BMP180;6091;51.432;6.880;2023-07-16T12:10:41;100697.00;;;29.80
12061;BMP180;6091;51.432;6.880;2023-07-16T12:13:08;100690.00;;;29.70
12061;BMP180;6091;51.432;6.880;2023-07-16T12:15:36;100699.00;;;29.70
12061;BMP180;6091;51.432;6.880;2023-07-16T12:18:03;100701.00;;;29.70
12061;BMP180;6091;51.432;6.880;2023-07-16T12:20:30;100697.00;;;29.70
12061;BMP180;6091;51.432;6.880;2023-07-16T12:22:57;100701.00;;;29.70
12061;BMP180;6091;51.432;6.880;2023-07-16T12:25:24;100698.00;;;29.70
12061;BMP180;6091;51.432;6.880;2023-07-16T12:27:51;100699.00;;;29.70
12061;BMP180;6091;51.432;6.880;2023-07-16T12:30:22;100704.00;;;29.70
12061;BMP180;6091;51.432;6.880;2023-07-16T12:32:49;100704.00;;;29.70
12061;BMP180;6091;51.432;6.880;2023-07-16T12:35:16;100706.00;;;29.70
12061;BMP180;6091;51.432;6.880;2023-07-16T12:37:43;100699.00;;;29.80
12061;BMP180;6091;51.432;6.880;2023-07-16T12:40:11;100709.00;;;29.80
12061;BMP180;6091;51.432;6.880;2023-07-16T12:42:38;100711.00;;;29.80
12061;BMP180;6091;51.432;6.880;2023-07-16T12:45:06;100714.00;;;29.80
12061;BMP180;6091;51.432;6.880;2023-07-16T12:47:33;100705.00;;;29.80
12061;BMP180;6091;51.432;6.880;2023-07-16T12:50:00;100719.00;;;29.80
12061;BMP180;6091;51.432;6.880;2023-07-16T12:52:28;100712.00;;;29.90
12061;BMP180;6091;51.432;6.880;2023-07-16T12:54:55;100713.00;;;29.90
12061;BMP180;6091;51.432;6.880;2023-07-16T12:57:24;100720.00;;;29.90
12061;BMP180;6091;51.432;6.880;2023-07-16T12:59:53;100718.00;;;29.90
12061;BMP180;6091;51.432;6.880;2023-07-16T13:02:20;100720.00;;;30.00
12061;BMP180;6091;51.432;6.880;2023-07-16T13:04:47;100722.00;;;30.00
12061;BMP180;6091;51.432;6.880;2023-07-16T13:07:14;100726.00;;;30.10
12061;BMP180;6091;51.432;6.880;2023-07-16T13:09:41;100723.00;;;30.20
12061;BMP180;6091;51.432;6.880;2023-07-16T13:12:08;100728.00;;;30.20
12061;BMP180;6091;51.432;6.880;2023-07-16T13:14:35;100720.00;;;30.30
12061;BMP180;6091;51.432;6.880;2023-07-16T13:17:02;100723.00;;;30.50
12061;BMP180;6091;51.432;6.880;2023-07-16T13:19:32;100731.00;;;30.60
12061;BMP180;6091;51.432;6.880;2023-07-16T13:21:59;100725.00;;;30.60
12061;BMP180;6091;51.432;6.880;2023-07-16T13:24:26;100731.00;;;30.70
12061;BMP180;6091;51.432;6.880;2023-07-16T13:26:53;100724.00;;;30.80
12061;BMP180;6091;51.432;6.880;2023-07-16T13:29:20;100727.00;;;30.90
12061;BMP180;6091;51.432;6.880;2023-07-16T13:31:47;100730.00;;;30.90
12061;BMP180;6091;51.432;6.880;2023-07-16T13:34:14;100727.00;;;30.90
12061;BMP180;6091;51.432;6.880;2023-07-16T13:36:41;100730.00;;;30.90
12061;BMP180;6091;51.432;6.880;2023-07-16T13:39:08;100728.00;;;30.90
12061;BMP180;6091;51.432;6.880;2023-07-16T13:41:36;100734.00;;;30.90
12061;BMP180;6091;51.432;6.880;2023-07-16T13:44:03;100737.00;;;30.90
12061;BMP180;6091;51.432;6.880;2023-07-16T13:46:31;100739.00;;;30.90
12061;BMP180;6091;51.432;6.880;2023-07-16T13:48:58;100736.00;;;30.90
12061;BMP180;6091;51.432;6.880;2023-07-16T13:51:27;100742.00;;;30.90
12061;BMP180;6091;51.432;6.880;2023-07-16T13:53:54;100739.00;;;30.80
12061;BMP180;6091;51.432;6.880;2023-07-16T13:56:21;100744.00;;;30.80
12061;BMP180;6091;51.432;6.880;2023-07-16T13:58:48;100741.00;;;30.80
12061;BMP180;6091;51.432;6.880;2023-07-16T14:01:18;100724.00;;;30.90
12061;BMP180;6091;51.432;6.880;2023-07-16T14:03:45;100727.00;;;30.90
12061;BMP180;6091;51.432;6.880;2023-07-16T14:06:13;100737.00;;;30.90
12061;BMP180;6091;51.432;6.880;2023-07-16T14:08:40;100735.00;;;30.90
12061;BMP180;6091;51.432;6.880;2023-07-16T14:11:07;100727.00;;;30.90
12061;BMP180;6091;51.432;6.880;2023-07-16T14:13:34;100737.00;;;30.90
12061;BMP180;6091;51.432;6.880;2023-07-16T14:16:01;100734.00;;;31.00
12061;BMP180;6091;51.432;6.880;2023-07-16T14:18:30;100731.00;;;31.00
12061;BMP180;6091;51.432;6.880;2023-07-16T14:20:58;100727.00;;;31.00
12061;BMP180;6091;51.432;6.880;2023-07-16T14:23:25;100730.00;;;31.00
12061;BMP180;6091;51.432;6.880;2023-07-16T14:25:52;100722.00;;;31.00